Main page
METAR-TAF:

METAR-TAF

Airports :

Perugia San Francesco d'Assisi – Umbria International Airport

Perugia, Italy

latitude: 43-05N, longitude: 012-30E, elevation: 208 m

Current weather observation

The report was made 16 minutes ago, at 12:50 UTC
Wind 8 kt from the West/Northwest, varying between Southwest and North
Temperature 30°C
Humidity 33%
Pressure 1017 hPa
Visibility 10 km or more

METAR: LIRZ 171250Z AUTO 29008KT 220V350 9999 FEW067/// 30/12 Q1017

Time: 15:06 (13:06 UTC)

Forecast

The report was made 2 hours and 6 minutes ago, at 11:00 UTC
Forecast valid from 17 at 12 UTC to 18 at 12 UTC
Wind 10 kt from the Northwest
Visibility 10 km or more
Few clouds at a height of 5000 ft
Becoming
from 17 at 16 UTC to 17 at 18 UTC
Wind 5 kt from variable directions

TAF: LIRZ 171100Z 1712/1812 32010KT 9999 FEW050 BECMG 1716/1718 VRB05KT

Weather observations and forecasts of more than 4000 airports (METAR and TAF reports).

The available stations are represented by yellow and red dots on the map.

Hover mouse over dot to see the name of the station.

Then click to see weather observations and forecasts.

To change the map : click on the green buttons with a black cross to zoom in, on the green button with a dash to zoom out, or on the green arrows for adjacent maps.


METAR-TAF: